createdAt,value
2022-11-20T00:03:54.217Z,54.08
2022-11-20T00:08:52.986Z,50.97
2022-11-20T00:13:51.412Z,53.30
2022-11-20T00:18:48.752Z,60.55
2022-11-20T00:23:45.733Z,52.55
2022-11-20T00:28:44.770Z,52.50
2022-11-20T00:33:42.431Z,50.53
2022-11-20T00:38:39.398Z,48.30
2022-11-20T00:43:37.373Z,47.28
2022-11-20T00:48:35.182Z,47.88
2022-11-20T00:53:32.420Z,52.97
2022-11-20T00:58:31.979Z,54.72
2022-11-20T01:03:32.196Z,63.25
2022-11-20T01:08:32.326Z,61.47
2022-11-20T01:13:39.531Z,60.03
2022-11-20T01:18:37.125Z,61.70
2022-11-20T01:23:36.108Z,53.65
2022-11-20T01:28:33.657Z,58.63
2022-11-20T01:33:30.614Z,64.45
2022-11-20T01:38:27.626Z,54.50
2022-11-20T01:43:26.333Z,56.97
2022-11-20T01:48:26.403Z,59.38
2022-11-20T01:53:28.931Z,54.20
2022-11-20T01:58:33.297Z,50.00
2022-11-20T02:03:30.388Z,45.63
2022-11-20T02:08:27.460Z,40.88
2022-11-20T02:13:41.862Z,42.03
2022-11-20T02:18:39.950Z,39.63
2022-11-20T02:23:40.763Z,38.95
2022-11-20T02:28:38.726Z,45.67
2022-11-20T02:33:35.776Z,45.47
2022-11-20T02:38:32.684Z,39.95
2022-11-20T02:43:29.547Z,39.75
2022-11-20T02:48:30.156Z,47.50
2022-11-20T02:53:29.854Z,50.85
2022-11-20T02:58:26.658Z,52.22
2022-11-20T03:03:23.726Z,41.80
2022-11-20T03:08:21.402Z,51.92
2022-11-20T03:13:18.333Z,51.00
2022-11-20T03:18:15.373Z,53.75
2022-11-20T03:23:12.387Z,48.17
2022-11-20T03:28:09.871Z,61.38
2022-11-20T03:33:07.166Z,47.10
2022-11-20T03:38:04.042Z,49.80
2022-11-20T03:43:00.939Z,53.70
2022-11-20T03:47:58.472Z,49.53
2022-11-20T03:52:55.473Z,61.30
2022-11-20T03:57:52.554Z,57.55
2022-11-20T04:02:49.597Z,55.85
2022-11-20T04:07:47.407Z,54.50
2022-11-20T04:12:44.403Z,53.85
2022-11-20T04:17:41.383Z,56.50
2022-11-20T04:22:38.424Z,59.30
2022-11-20T04:27:36.018Z,60.90
2022-11-20T04:32:32.940Z,65.88
2022-11-20T04:37:29.836Z,65.47
2022-11-20T04:42:29.397Z,73.75
2022-11-20T04:47:26.895Z,57.53
2022-11-20T04:52:24.228Z,66.03
2022-11-20T04:57:21.305Z,71.70
2022-11-20T05:02:18.427Z,57.28
2022-11-20T05:07:16.882Z,64.97
2022-11-20T05:12:14.265Z,60.67
2022-11-20T05:17:11.934Z,61.85
2022-11-20T05:22:08.911Z,67.68
2022-11-20T05:27:06.704Z,60.55
2022-11-20T05:32:03.791Z,72.40
2022-11-20T05:37:00.681Z,62.22
2022-11-20T05:42:12.069Z,50.67
2022-11-20T05:47:12.025Z,64.45
2022-11-20T05:52:09.060Z,55.38
2022-11-20T05:57:05.950Z,51.40
2022-11-20T06:02:02.889Z,48.03
2022-11-20T06:07:00.450Z,42.25
2022-11-20T06:11:57.441Z,42.67
2022-11-20T06:16:54.442Z,44.70
2022-11-20T06:21:51.626Z,46.03
2022-11-20T06:26:49.195Z,52.35
2022-11-20T06:31:51.531Z,50.15
2022-11-20T06:36:50.390Z,43.38
2022-11-20T06:41:57.260Z,48.35
2022-11-20T06:46:55.731Z,36.92
2022-11-20T06:51:52.521Z,32.40
2022-11-20T06:56:50.819Z,34.78
2022-11-20T07:01:48.196Z,31.48
2022-11-20T07:06:45.251Z,37.90
2022-11-20T07:11:42.213Z,36.53
2022-11-20T07:16:40.667Z,32.25
2022-11-20T07:21:37.966Z,33.08
2022-11-20T07:26:35.917Z,38.05
2022-11-20T07:31:36.028Z,36.05
2022-11-20T07:36:34.099Z,28.88
2022-11-20T07:41:30.965Z,36.20
2022-11-20T07:46:28.054Z,38.33
2022-11-20T07:51:26.400Z,29.92
2022-11-20T07:56:23.934Z,34.60
2022-11-20T08:01:21.531Z,36.20
2022-11-20T08:06:19.912Z,31.83
2022-11-20T08:11:34.673Z,38.15
2022-11-20T08:16:32.579Z,33.45
2022-11-20T08:21:36.721Z,31.02
2022-11-20T08:26:35.726Z,24.98
2022-11-20T08:31:33.880Z,25.70
2022-11-20T08:36:34.501Z,26.63
2022-11-20T08:41:37.226Z,24.55
2022-11-20T08:46:37.757Z,23.77
2022-11-20T08:51:35.374Z,21.10
2022-11-20T08:56:33.148Z,22.42
2022-11-20T09:01:30.921Z,24.65
2022-11-20T09:06:28.568Z,26.55
2022-11-20T09:11:25.590Z,22.10
2022-11-20T09:16:22.687Z,24.02
2022-11-20T09:21:19.662Z,28.38
2022-11-20T09:26:17.328Z,25.98
2022-11-20T09:31:22.867Z,24.75
2022-11-20T09:36:20.467Z,22.60
2022-11-20T09:41:46.279Z,25.45
2022-11-20T09:46:54.569Z,22.13
2022-11-20T09:51:58.856Z,22.67
2022-11-20T09:57:00.487Z,19.95
2022-11-20T10:01:59.386Z,25.67
2022-11-20T10:07:31.028Z,21.00
2022-11-20T10:12:31.448Z,22.08
2022-11-20T10:17:52.841Z,20.60
2022-11-20T10:23:02.555Z,21.27
2022-11-20T10:28:13.961Z,25.10
2022-11-20T10:33:18.267Z,25.83
2022-11-20T10:38:21.601Z,26.98
2022-11-20T10:43:22.620Z,25.08
2022-11-20T10:48:22.439Z,25.70
2022-11-20T10:53:32.635Z,22.45
2022-11-20T10:58:38.024Z,27.17
2022-11-20T11:03:35.584Z,26.88
2022-11-20T11:08:39.584Z,44.30
2022-11-20T11:13:40.244Z,37.50
2022-11-20T11:18:43.197Z,39.50
2022-11-20T11:23:42.010Z,40.70
2022-11-20T11:28:39.832Z,36.28
2022-11-20T11:33:36.989Z,37.47
2022-11-20T11:38:37.342Z,39.08
2022-11-20T11:43:55.198Z,35.05
2022-11-20T11:48:58.091Z,38.50
2022-11-20T11:53:55.164Z,40.00
2022-11-20T11:59:01.565Z,44.13
2022-11-20T12:04:07.112Z,51.42
2022-11-20T12:09:06.805Z,46.10
2022-11-20T12:14:10.956Z,38.92
2022-11-20T12:19:12.761Z,47.58
2022-11-20T12:24:38.597Z,49.22
2022-11-20T12:29:52.331Z,42.58
2022-11-20T12:35:05.002Z,43.20
2022-11-20T12:40:22.323Z,34.80
2022-11-20T12:45:41.226Z,35.50
2022-11-20T12:51:16.267Z,37.97
2022-11-20T12:56:21.240Z,37.60
2022-11-20T13:01:42.680Z,39.13
2022-11-20T13:06:43.105Z,32.65
2022-11-20T13:11:46.800Z,37.60
2022-11-20T13:16:51.283Z,37.40
2022-11-20T13:21:51.911Z,39.38
2022-11-20T13:26:49.092Z,39.20
2022-11-20T13:31:48.147Z,37.40
2022-11-20T13:36:53.930Z,42.03
2022-11-20T13:46:52.465Z,31.90
2022-11-20T13:51:51.788Z,34.47
2022-11-20T13:57:06.112Z,28.65
2022-11-20T14:02:03.582Z,30.40
2022-11-20T14:07:02.032Z,33.25
2022-11-20T14:12:02.629Z,34.38
2022-11-20T14:17:08.044Z,30.83
2022-11-20T14:22:12.454Z,36.95
2022-11-20T14:27:15.271Z,31.48
2022-11-20T14:32:15.266Z,30.88
2022-11-20T14:37:18.152Z,29.50
2022-11-20T14:42:17.431Z,31.77
2022-11-20T14:47:19.264Z,28.45
2022-11-20T14:52:20.051Z,27.33
2022-11-20T14:57:28.714Z,30.63
2022-11-20T15:02:25.699Z,19.85
2022-11-20T15:07:28.725Z,26.60
2022-11-20T15:12:25.884Z,20.70
2022-11-20T15:17:23.504Z,21.40
2022-11-20T15:22:20.407Z,25.40
2022-11-20T15:27:18.455Z,23.98
2022-11-20T15:32:15.789Z,23.17
2022-11-20T15:37:13.164Z,25.15
2022-11-20T15:42:10.904Z,20.67
2022-11-20T15:47:10.322Z,23.95
2022-11-20T15:52:10.206Z,23.98
2022-11-20T15:57:07.278Z,24.38
2022-11-20T16:02:06.478Z,39.65
2022-11-20T16:07:04.412Z,22.05
2022-11-20T16:12:05.914Z,22.88
2022-11-20T16:17:03.975Z,21.70
2022-11-20T16:22:04.428Z,22.48
2022-11-20T16:27:03.788Z,19.25
2022-11-20T16:32:01.012Z,21.33
2022-11-20T16:36:58.222Z,21.45
2022-11-20T16:41:55.356Z,16.67
2022-11-20T16:46:53.325Z,18.27
2022-11-20T16:51:52.147Z,14.88
2022-11-20T16:56:51.183Z,20.38
2022-11-20T17:01:48.545Z,17.63
2022-11-20T17:06:48.130Z,17.60
2022-11-20T17:11:45.211Z,17.73
2022-11-20T17:16:44.709Z,20.23
2022-11-20T17:21:43.991Z,17.15
2022-11-20T17:26:43.206Z,18.13
2022-11-20T17:31:41.246Z,18.50
2022-11-20T17:36:44.811Z,18.10
2022-11-20T17:41:43.267Z,14.85
2022-11-20T17:46:40.628Z,12.98
2022-11-20T17:51:37.804Z,14.15
2022-11-20T17:56:57.443Z,11.55
2022-11-20T18:02:02.241Z,10.73
2022-11-20T18:07:01.317Z,11.45
2022-11-20T18:11:58.731Z,10.50
2022-11-20T18:16:58.851Z,10.57
2022-11-20T18:21:56.569Z,7.93
2022-11-20T18:26:54.944Z,9.20
2022-11-20T18:31:55.091Z,16.30
2022-11-20T18:36:56.098Z,11.80
2022-11-20T18:42:11.298Z,10.23
2022-11-20T18:47:14.788Z,6.93
2022-11-20T18:52:13.322Z,4.90
2022-11-20T18:57:16.751Z,4.68
2022-11-20T19:02:23.726Z,5.78
2022-11-20T19:07:31.182Z,4.15
2022-11-20T19:12:28.464Z,5.05
2022-11-20T19:17:25.894Z,3.13
2022-11-20T19:22:23.867Z,5.95
2022-11-20T19:27:21.432Z,4.88
2022-11-20T19:32:18.693Z,7.63
2022-11-20T19:37:16.187Z,9.05
2022-11-20T19:42:16.438Z,8.10
2022-11-20T19:47:14.840Z,9.27
2022-11-20T19:52:12.398Z,9.68
2022-11-20T19:57:09.580Z,11.00
2022-11-20T20:02:09.555Z,12.93
2022-11-20T20:07:07.095Z,13.15
2022-11-20T20:12:04.876Z,13.82
2022-11-20T20:17:01.942Z,16.50
2022-11-20T20:22:02.493Z,19.58
2022-11-20T20:26:59.619Z,15.27
2022-11-20T20:32:00.369Z,20.75
2022-11-20T20:37:03.452Z,15.95
2022-11-20T20:42:04.459Z,18.52
2022-11-20T20:47:05.566Z,17.95
2022-11-20T20:52:22.510Z,20.90
2022-11-20T20:57:28.690Z,18.60
2022-11-20T21:02:26.104Z,28.40
2022-11-20T21:07:25.568Z,28.00
2022-11-20T21:12:25.481Z,26.95
2022-11-20T21:17:28.614Z,26.88
2022-11-20T21:22:25.969Z,24.00
2022-11-20T21:27:29.434Z,19.83
2022-11-20T21:32:26.568Z,14.02
2022-11-20T21:37:23.554Z,14.00
2022-11-20T21:42:22.528Z,11.80
2022-11-20T21:47:20.424Z,13.48
2022-11-20T21:52:20.281Z,16.77
2022-11-20T21:57:17.365Z,18.27
2022-11-20T22:02:14.575Z,24.92
2022-11-20T22:07:15.508Z,26.90
2022-11-20T22:12:12.902Z,26.33
2022-11-20T22:17:13.246Z,25.17
2022-11-20T22:22:10.411Z,19.83
2022-11-20T22:27:10.418Z,21.98
2022-11-20T22:32:08.226Z,14.38
2022-11-20T22:37:05.258Z,12.65
2022-11-20T22:42:02.354Z,13.10
2022-11-20T22:47:07.460Z,11.25
2022-11-20T22:52:11.615Z,16.85
2022-11-20T22:57:08.913Z,15.20
2022-11-20T23:02:08.503Z,14.55
2022-11-20T23:07:08.429Z,13.50
2022-11-20T23:12:09.104Z,13.05
2022-11-20T23:17:10.154Z,12.70
2022-11-20T23:22:08.272Z,14.35
2022-11-20T23:27:05.748Z,14.75
2022-11-20T23:32:11.872Z,18.65
2022-11-20T23:37:09.036Z,25.55
2022-11-20T23:42:08.801Z,27.55
2022-11-20T23:47:09.642Z,19.05
2022-11-20T23:52:06.782Z,20.30
2022-11-20T23:57:03.908Z,21.63
